createdAt,value
2018-03-01T00:00:36.355Z,7.97
2018-03-01T00:03:04.794Z,10.27
2018-03-01T00:05:33.098Z,9.70
2018-03-01T00:08:03.143Z,9.10
2018-03-01T00:10:31.509Z,7.93
2018-03-01T00:13:00.350Z,6.90
2018-03-01T00:15:28.827Z,7.13
2018-03-01T00:17:57.223Z,9.53
2018-03-01T00:20:28.010Z,8.10
2018-03-01T00:22:57.928Z,5.77
2018-03-01T00:25:26.270Z,8.50
2018-03-01T00:27:54.617Z,7.00
2018-03-01T00:30:22.968Z,9.17
2018-03-01T00:32:51.332Z,6.40
2018-03-01T00:35:21.343Z,10.30
2018-03-01T00:37:49.781Z,11.03
2018-03-01T00:40:19.881Z,5.50
2018-03-01T00:42:51.025Z,8.53
2018-03-01T00:45:19.419Z,8.60
2018-03-01T00:47:47.752Z,9.43
2018-03-01T00:50:16.916Z,8.63
2018-03-01T00:52:45.226Z,8.70
2018-03-01T00:55:15.729Z,8.90
2018-03-01T00:57:45.733Z,6.40
2018-03-01T01:00:14.090Z,7.03
2018-03-01T01:02:42.396Z,7.03
2018-03-01T01:05:13.349Z,9.03
2018-03-01T01:07:42.441Z,8.27
2018-03-01T01:10:10.848Z,5.80
2018-03-01T01:12:40.175Z,8.00
2018-03-01T01:15:08.621Z,4.77
2018-03-01T01:17:37.924Z,6.13
2018-03-01T01:20:06.299Z,8.60
2018-03-01T01:22:34.614Z,7.03
2018-03-01T01:25:02.907Z,10.03
2018-03-01T01:27:33.134Z,11.10
2018-03-01T01:30:03.858Z,9.37
2018-03-01T01:32:34.857Z,11.23
2018-03-01T01:35:03.243Z,8.17
2018-03-01T01:37:31.509Z,7.47
2018-03-01T01:39:59.828Z,6.47
2018-03-01T01:42:29.843Z,8.83
2018-03-01T01:44:58.216Z,6.53
2018-03-01T01:47:26.596Z,9.53
2018-03-01T01:49:54.918Z,8.80
2018-03-01T01:52:23.253Z,11.33
2018-03-01T01:54:51.622Z,8.63
2018-03-01T01:57:20.922Z,10.97
2018-03-01T01:59:49.352Z,9.30
2018-03-01T02:02:17.689Z,9.47
2018-03-01T02:04:45.991Z,9.87
2018-03-01T02:07:14.330Z,9.77
2018-03-01T02:09:43.445Z,10.70
2018-03-01T02:12:11.947Z,9.00
2018-03-01T02:14:40.261Z,7.27
2018-03-01T02:17:08.982Z,5.97
2018-03-01T02:19:37.506Z,7.90
2018-03-01T02:22:05.849Z,6.23
2018-03-01T02:24:35.990Z,6.47
2018-03-01T02:27:04.295Z,9.00
2018-03-01T02:29:33.343Z,5.43
2018-03-01T02:32:01.670Z,5.60
2018-03-01T02:34:30.137Z,5.87
2018-03-01T02:36:58.570Z,5.90
2018-03-01T02:39:27.707Z,12.30
2018-03-01T02:41:56.031Z,11.97
2018-03-01T02:44:24.585Z,7.53
2018-03-01T02:46:52.882Z,8.03
2018-03-01T02:49:23.003Z,6.77
2018-03-01T02:51:53.134Z,5.67
2018-03-01T02:54:21.512Z,7.67
2018-03-01T02:56:50.576Z,3.10
2018-03-01T02:59:18.973Z,5.93
2018-03-01T03:01:49.042Z,7.53
2018-03-01T03:04:17.466Z,8.80
2018-03-01T03:06:46.008Z,8.20
2018-03-01T03:09:16.521Z,12.67
2018-03-01T03:11:45.550Z,11.23
2018-03-01T03:14:13.919Z,9.20
2018-03-01T03:16:42.559Z,7.20
2018-03-01T03:19:10.939Z,9.07
2018-03-01T03:21:39.258Z,5.40
2018-03-01T03:24:07.594Z,7.50
2018-03-01T03:26:35.905Z,7.43
2018-03-01T03:29:05.988Z,10.83
2018-03-01T03:31:34.356Z,8.63
2018-03-01T03:34:02.679Z,9.17
2018-03-01T03:36:31.068Z,9.73
2018-03-01T03:39:00.116Z,8.10
2018-03-01T03:41:28.463Z,11.33
2018-03-01T03:43:58.594Z,6.10
2018-03-01T03:46:26.929Z,7.00
2018-03-01T03:48:55.276Z,11.47
2018-03-01T03:51:23.609Z,6.43
2018-03-01T03:53:52.065Z,5.70
2018-03-01T03:56:20.355Z,9.97
2018-03-01T03:58:49.420Z,6.37
2018-03-01T04:01:17.726Z,6.97
2018-03-01T04:03:46.096Z,5.80
2018-03-01T04:06:16.173Z,7.63
2018-03-01T04:08:44.616Z,11.90
2018-03-01T04:11:15.531Z,6.40
2018-03-01T04:13:43.905Z,9.37
2018-03-01T04:16:12.292Z,9.20
2018-03-01T04:18:42.587Z,8.23
2018-03-01T04:21:15.904Z,10.20
2018-03-01T04:23:47.542Z,8.40
2018-03-01T04:26:18.762Z,6.47
2018-03-01T04:28:47.109Z,6.50
2018-03-01T04:31:16.180Z,8.67
2018-03-01T04:33:44.622Z,4.20
2018-03-01T04:36:13.730Z,9.90
2018-03-01T04:38:42.081Z,6.83
2018-03-01T04:41:10.403Z,10.77
2018-03-01T04:43:38.743Z,6.97
2018-03-01T04:46:07.808Z,7.83
2018-03-01T04:48:36.117Z,8.20
2018-03-01T04:51:06.184Z,4.43
2018-03-01T04:53:35.169Z,8.23
2018-03-01T04:56:04.534Z,4.70
2018-03-01T04:58:32.911Z,12.57
2018-03-01T05:01:03.203Z,9.80
2018-03-01T05:03:35.505Z,5.50
2018-03-01T05:06:03.851Z,8.60
2018-03-01T05:08:32.191Z,8.77
2018-03-01T05:11:00.965Z,12.40
2018-03-01T05:13:32.156Z,6.80
2018-03-01T05:16:00.476Z,7.70
2018-03-01T05:18:29.875Z,6.30
2018-03-01T05:20:58.411Z,8.63
2018-03-01T05:23:26.735Z,7.97
2018-03-01T05:25:55.219Z,6.63
2018-03-01T05:28:23.546Z,11.93
2018-03-01T05:30:51.156Z,7.47
2018-03-01T05:33:21.499Z,6.20
2018-03-01T05:35:49.851Z,12.40
2018-03-01T05:38:18.163Z,6.40
2018-03-01T05:40:46.561Z,8.77
2018-03-01T05:43:15.685Z,5.23
2018-03-01T05:45:46.595Z,6.73
2018-03-01T05:48:15.028Z,10.37
2018-03-01T05:50:43.322Z,8.30
2018-03-01T05:53:11.666Z,9.47
2018-03-01T05:55:43.321Z,9.37
2018-03-01T05:58:13.316Z,10.00
2018-03-01T06:00:43.482Z,10.33
2018-03-01T06:03:11.914Z,9.97
2018-03-01T06:05:40.425Z,5.83
2018-03-01T06:08:09.575Z,6.33
2018-03-01T06:10:37.177Z,11.07
2018-03-01T06:13:07.020Z,9.60
2018-03-01T06:15:37.335Z,6.57
2018-03-01T06:18:08.772Z,8.97
2018-03-01T06:20:38.837Z,8.17
2018-03-01T06:23:07.291Z,5.97
2018-03-01T06:25:35.742Z,5.27
2018-03-01T06:28:04.839Z,7.20
2018-03-01T06:30:33.186Z,8.07
2018-03-01T06:33:01.604Z,9.13
2018-03-01T06:35:30.697Z,8.17
2018-03-01T06:38:00.195Z,9.43
2018-03-01T06:40:31.168Z,9.53
2018-03-01T06:42:59.626Z,10.20
2018-03-01T06:45:28.065Z,9.00
2018-03-01T06:47:56.447Z,9.80
2018-03-01T06:50:26.693Z,6.47
2018-03-01T06:52:57.905Z,6.97
2018-03-01T06:55:33.299Z,7.00
2018-03-01T06:58:03.412Z,6.53
2018-03-01T07:00:31.843Z,7.10
2018-03-01T07:03:01.155Z,6.37
2018-03-01T07:05:31.300Z,6.93
2018-03-01T07:08:01.444Z,6.30
2018-03-01T07:10:30.652Z,10.70
2018-03-01T07:12:59.750Z,8.37
2018-03-01T07:15:28.412Z,9.13
2018-03-01T07:17:59.592Z,9.80
2018-03-01T07:20:29.760Z,6.30
2018-03-01T07:22:59.996Z,7.87
2018-03-01T07:25:28.388Z,8.73
2018-03-01T07:27:56.796Z,8.40
2018-03-01T07:30:27.926Z,6.97
2018-03-01T07:32:56.436Z,7.33
2018-03-01T07:35:24.769Z,3.50
2018-03-01T07:37:53.183Z,6.80
2018-03-01T07:40:25.197Z,8.93
2018-03-01T07:42:53.648Z,10.93
2018-03-01T07:45:22.052Z,7.30
2018-03-01T07:47:50.404Z,6.80
2018-03-01T07:50:19.607Z,9.83
2018-03-01T07:52:47.936Z,11.27
2018-03-01T07:55:19.182Z,12.60
2018-03-01T07:57:47.658Z,5.93
2018-03-01T08:00:16.278Z,11.03
2018-03-01T08:02:47.268Z,10.53
2018-03-01T08:05:17.505Z,11.53
2018-03-01T08:07:45.926Z,6.77
2018-03-01T08:10:14.298Z,7.97
2018-03-01T08:12:42.714Z,9.30
2018-03-01T08:15:11.058Z,9.47
2018-03-01T08:17:39.409Z,6.70
2018-03-01T08:20:09.652Z,12.13
2018-03-01T08:22:38.907Z,11.50
2018-03-01T08:25:11.274Z,7.40
2018-03-01T08:27:39.651Z,10.80
2018-03-01T08:30:08.030Z,6.70
2018-03-01T08:32:38.225Z,8.80
2018-03-01T08:35:06.639Z,6.50
2018-03-01T08:37:34.990Z,11.57
2018-03-01T08:40:03.552Z,9.60
2018-03-01T08:42:31.990Z,7.83
2018-03-01T08:45:00.398Z,7.77
2018-03-01T08:47:29.779Z,7.57
2018-03-01T08:50:00.020Z,5.30
2018-03-01T08:52:30.836Z,8.60
2018-03-01T08:54:59.617Z,8.30
2018-03-01T08:57:27.977Z,12.53
2018-03-01T08:59:58.057Z,6.53
2018-03-01T09:02:26.488Z,9.90
2018-03-01T09:04:56.539Z,10.67
2018-03-01T09:07:24.969Z,11.37
2018-03-01T09:09:55.612Z,13.40
2018-03-01T09:12:25.848Z,7.30
2018-03-01T09:14:56.208Z,9.40
2018-03-01T09:17:26.414Z,9.37
2018-03-01T09:19:54.902Z,10.40
2018-03-01T09:22:24.005Z,7.00
2018-03-01T09:24:52.457Z,7.73
2018-03-01T09:27:20.908Z,7.80
2018-03-01T09:29:49.344Z,12.60
2018-03-01T09:32:17.730Z,7.50
2018-03-01T09:34:46.208Z,8.70
2018-03-01T09:37:15.414Z,5.50
2018-03-01T09:39:43.853Z,10.20
2018-03-01T09:42:12.383Z,10.33
2018-03-01T09:44:40.886Z,12.43
2018-03-01T09:47:09.273Z,6.70
2018-03-01T09:49:40.643Z,10.70
2018-03-01T09:52:09.000Z,9.73
2018-03-01T09:54:37.332Z,11.40
2018-03-01T09:57:08.319Z,11.97
2018-03-01T09:59:38.377Z,9.80
2018-03-01T10:02:06.813Z,10.63
2018-03-01T10:04:36.015Z,7.20
2018-03-01T10:07:04.387Z,13.80
2018-03-01T10:09:32.832Z,13.73
2018-03-01T10:12:03.211Z,10.50
2018-03-01T10:14:34.754Z,15.13
2018-03-01T10:17:03.392Z,16.23
2018-03-01T10:19:32.531Z,11.60
2018-03-01T10:22:00.848Z,12.87
2018-03-01T10:24:29.921Z,15.10
2018-03-01T10:26:58.309Z,11.53
2018-03-01T10:29:28.266Z,11.23
2018-03-01T10:31:56.637Z,9.33
2018-03-01T10:34:25.010Z,8.83
2018-03-01T10:36:54.073Z,12.43
2018-03-01T10:39:22.522Z,5.17
2018-03-01T10:41:52.533Z,12.03
2018-03-01T10:44:20.946Z,12.10
2018-03-01T10:46:50.061Z,9.60
2018-03-01T10:49:18.524Z,10.30
2018-03-01T10:51:46.944Z,8.50
2018-03-01T10:54:15.347Z,9.03
2018-03-01T10:56:43.992Z,8.50
2018-03-01T10:59:13.300Z,12.40
2018-03-01T11:01:48.915Z,10.83
2018-03-01T11:04:17.715Z,14.03
2018-03-01T11:06:46.952Z,14.10
2018-03-01T11:09:17.672Z,16.67
2018-03-01T11:11:48.506Z,15.90
2018-03-01T11:14:17.809Z,16.83
2018-03-01T11:16:46.197Z,13.00
2018-03-01T11:19:14.864Z,16.40
2018-03-01T11:21:43.257Z,12.13
2018-03-01T11:24:13.469Z,14.70
2018-03-01T11:26:44.495Z,20.60
2018-03-01T11:29:13.358Z,9.20
2018-03-01T11:31:41.765Z,11.90
2018-03-01T11:34:11.874Z,12.80
2018-03-01T11:36:40.341Z,15.00
2018-03-01T11:39:08.751Z,13.23
2018-03-01T11:41:39.836Z,16.10
2018-03-01T11:44:08.235Z,15.90
2018-03-01T11:46:36.813Z,18.33
2018-03-01T11:49:06.455Z,17.03
2018-03-01T11:51:34.972Z,8.73
2018-03-01T11:54:04.137Z,14.37
2018-03-01T11:56:32.484Z,13.90
2018-03-01T11:59:00.764Z,10.43
2018-03-01T12:01:29.141Z,8.77
2018-03-01T12:03:57.546Z,17.30
2018-03-01T12:06:26.929Z,18.70
2018-03-01T12:08:58.076Z,16.43
2018-03-01T12:11:26.447Z,15.70
2018-03-01T12:13:54.878Z,15.83
2018-03-01T12:16:23.199Z,16.30
2018-03-01T12:18:51.599Z,19.80
2018-03-01T12:21:19.993Z,17.67
2018-03-01T12:23:48.552Z,17.67
2018-03-01T12:26:18.755Z,14.33
2018-03-01T12:28:47.244Z,18.17
2018-03-01T12:31:15.563Z,18.90
2018-03-01T12:33:44.021Z,11.10
2018-03-01T12:36:12.432Z,20.40
2018-03-01T12:38:40.805Z,11.33
2018-03-01T12:41:09.285Z,19.40
2018-03-01T12:43:37.701Z,16.30
2018-03-01T12:46:06.261Z,18.43
2018-03-01T12:48:34.670Z,16.83
2018-03-01T12:51:03.047Z,16.90
2018-03-01T12:53:31.375Z,18.90
2018-03-01T12:55:59.701Z,17.63
2018-03-01T12:58:28.021Z,20.27
2018-03-01T13:00:56.397Z,17.00
2018-03-01T13:03:24.809Z,15.70
2018-03-01T13:05:53.161Z,18.07
2018-03-01T13:08:21.700Z,19.73
2018-03-01T13:10:50.081Z,17.87
2018-03-01T13:13:18.351Z,12.67
2018-03-01T13:15:49.289Z,14.30
2018-03-01T13:18:17.777Z,11.50
2018-03-01T13:20:46.329Z,20.80
2018-03-01T13:23:14.680Z,19.67
2018-03-01T13:25:43.006Z,19.93
2018-03-01T13:28:11.339Z,10.80
2018-03-01T13:30:39.682Z,19.50
2018-03-01T13:33:13.700Z,13.57
2018-03-01T13:35:42.061Z,17.73
2018-03-01T13:38:10.429Z,16.70
2018-03-01T13:40:38.735Z,18.90
2018-03-01T13:43:07.063Z,18.97
2018-03-01T13:45:39.149Z,13.00
2018-03-01T13:48:07.496Z,17.97
2018-03-01T13:50:39.191Z,14.07
2018-03-01T13:53:07.661Z,20.40
2018-03-01T13:55:36.010Z,21.23
2018-03-01T13:58:04.451Z,18.40
2018-03-01T14:00:32.955Z,19.77
2018-03-01T14:03:01.387Z,10.93
2018-03-01T14:05:31.434Z,15.57
2018-03-01T14:08:00.046Z,17.27
2018-03-01T14:10:30.206Z,19.30
2018-03-01T14:26:53.771Z,17.67
2018-03-01T14:29:33.571Z,12.13
2018-03-01T14:32:08.089Z,16.27
2018-03-01T14:34:36.736Z,19.37
2018-03-01T14:37:07.425Z,16.07
2018-03-01T14:39:35.790Z,19.43
2018-03-01T14:42:05.826Z,16.73
2018-03-01T14:44:34.980Z,16.40
2018-03-01T14:47:03.521Z,19.40
2018-03-01T14:49:32.714Z,16.30
2018-03-01T14:52:01.934Z,21.67
2018-03-01T14:54:30.294Z,17.17
2018-03-01T14:56:58.720Z,19.20
2018-03-01T14:59:27.057Z,20.70
2018-03-01T15:01:59.356Z,20.57
2018-03-01T15:04:27.806Z,17.60
2018-03-01T15:06:57.205Z,14.87
2018-03-01T15:09:25.584Z,12.80
2018-03-01T15:11:53.928Z,9.30
2018-03-01T15:14:22.478Z,16.97
2018-03-01T15:16:51.020Z,18.27
2018-03-01T15:19:23.570Z,13.40
2018-03-01T15:21:51.938Z,15.73
2018-03-01T15:24:22.081Z,9.50
2018-03-01T15:26:50.519Z,15.83
2018-03-01T15:29:20.647Z,19.97
2018-03-01T15:31:51.672Z,17.10
2018-03-01T15:34:23.934Z,21.77
2018-03-01T15:36:52.370Z,19.17
2018-03-01T15:39:23.649Z,14.97
2018-03-01T15:41:52.840Z,13.77
2018-03-01T15:44:21.302Z,17.40
2018-03-01T15:46:51.399Z,19.17
2018-03-01T15:49:22.410Z,20.63
2018-03-01T15:51:50.994Z,21.17
2018-03-01T15:54:20.100Z,17.67
2018-03-01T15:56:49.332Z,19.30
2018-03-01T15:59:17.664Z,17.30
2018-03-01T16:01:46.750Z,18.60
2018-03-01T16:04:15.114Z,12.33
2018-03-01T16:06:43.720Z,17.57
2018-03-01T16:09:12.075Z,14.37
2018-03-01T16:11:43.980Z,9.87
2018-03-01T16:14:12.363Z,16.37
2018-03-01T16:16:40.718Z,21.20
2018-03-01T16:19:09.919Z,18.63
2018-03-01T16:21:40.028Z,13.30
2018-03-01T16:24:11.253Z,15.07
2018-03-01T16:26:40.655Z,17.67
2018-03-01T16:29:11.821Z,17.77
2018-03-01T16:31:40.274Z,19.77
2018-03-01T16:34:09.190Z,14.50
2018-03-01T16:36:39.383Z,19.23
2018-03-01T16:39:07.814Z,14.70
2018-03-01T16:41:39.632Z,21.07
2018-03-01T16:44:09.866Z,16.10
2018-03-01T16:46:39.439Z,19.97
2018-03-01T16:49:08.010Z,19.50
2018-03-01T16:51:38.055Z,17.23
2018-03-01T16:54:07.294Z,18.17
2018-03-01T16:56:37.148Z,18.23
2018-03-01T16:59:05.539Z,17.77
2018-03-01T17:01:36.588Z,24.03
2018-03-01T17:04:12.214Z,20.53
2018-03-01T17:06:42.739Z,14.90
2018-03-01T17:09:12.791Z,18.20
2018-03-01T17:11:41.376Z,17.60
2018-03-01T17:14:11.314Z,20.90
2018-03-01T17:16:47.318Z,18.43
2018-03-01T17:19:16.720Z,21.20
2018-03-01T17:21:46.838Z,19.63
2018-03-01T17:24:16.469Z,19.60
2018-03-01T17:26:53.557Z,13.40
2018-03-01T17:29:22.141Z,20.37
2018-03-01T17:31:51.639Z,16.47
2018-03-01T17:34:20.068Z,18.80
2018-03-01T17:36:48.601Z,11.10
2018-03-01T17:39:17.103Z,19.70
2018-03-01T17:41:48.301Z,20.70
2018-03-01T17:44:18.385Z,18.77
2018-03-01T17:46:49.940Z,20.90
2018-03-01T17:49:19.209Z,14.87
2018-03-01T17:51:47.547Z,17.70
2018-03-01T17:54:16.001Z,15.27
2018-03-01T17:56:44.454Z,19.03
2018-03-01T17:59:12.792Z,20.80
2018-03-01T18:01:41.926Z,21.30
2018-03-01T18:04:10.408Z,18.63
2018-03-01T18:06:38.887Z,20.43
2018-03-01T18:09:07.257Z,22.47
2018-03-01T18:11:37.484Z,21.47
2018-03-01T18:14:05.976Z,23.50
2018-03-01T18:16:34.423Z,20.30
2018-03-01T18:19:02.876Z,14.63
2018-03-01T18:21:32.936Z,23.27
2018-03-01T18:24:04.066Z,22.20
2018-03-01T18:26:32.583Z,22.23
2018-03-01T18:29:08.836Z,15.77
2018-03-01T18:31:37.976Z,11.97
2018-03-01T18:34:07.083Z,17.57
2018-03-01T18:36:37.089Z,22.13
2018-03-01T18:39:07.145Z,21.83
2018-03-01T18:41:36.310Z,22.17
2018-03-01T18:44:06.258Z,20.07
2018-03-01T18:46:34.736Z,23.70
2018-03-01T18:49:03.897Z,22.10
2018-03-01T18:51:32.410Z,10.03
2018-03-01T18:54:02.703Z,21.17
2018-03-01T18:56:33.593Z,16.20
2018-03-01T18:59:03.526Z,17.40
2018-03-01T19:01:34.934Z,18.67
2018-03-01T19:04:04.988Z,22.47
2018-03-01T19:06:35.263Z,22.40
2018-03-01T19:09:05.946Z,22.70
2018-03-01T19:11:34.303Z,20.53
2018-03-01T19:14:02.752Z,19.03
2018-03-01T19:16:31.159Z,20.63
2018-03-01T19:18:59.813Z,13.50
2018-03-01T19:21:30.061Z,16.90
2018-03-01T19:24:00.400Z,20.20
2018-03-01T19:26:28.936Z,19.93
2018-03-01T19:28:59.260Z,14.83
2018-03-01T19:31:30.131Z,15.70
2018-03-01T19:34:00.429Z,20.90
2018-03-01T19:36:29.832Z,14.17
2018-03-01T19:39:00.917Z,18.00
2018-03-01T19:41:29.346Z,20.70
2018-03-01T19:43:59.471Z,20.27
2018-03-01T19:46:29.656Z,21.87
2018-03-01T19:48:58.098Z,19.73
2018-03-01T19:51:28.995Z,19.20
2018-03-01T19:53:58.271Z,14.23
2018-03-01T19:56:26.676Z,16.97
2018-03-01T19:58:59.060Z,19.97
2018-03-01T20:01:27.790Z,11.77
2018-03-01T20:03:56.216Z,16.50
2018-03-01T20:06:24.660Z,16.83
2018-03-01T20:08:53.074Z,15.73
2018-03-01T20:11:23.622Z,11.50
2018-03-01T20:13:52.183Z,20.50
2018-03-01T20:16:20.517Z,9.50
2018-03-01T20:18:48.870Z,12.77
2018-03-01T20:21:20.941Z,14.37
2018-03-01T20:23:49.535Z,18.40
2018-03-01T20:26:18.144Z,21.37
2018-03-01T20:28:46.632Z,19.70
2018-03-01T20:31:14.970Z,14.43
2018-03-01T20:33:43.421Z,15.63
2018-03-01T20:36:16.214Z,18.87
2018-03-01T20:38:50.010Z,11.37
2018-03-01T20:41:23.817Z,20.57
2018-03-01T20:43:54.315Z,22.57
2018-03-01T20:46:26.191Z,15.70
2018-03-01T20:48:58.055Z,15.13
2018-03-01T20:51:28.933Z,19.97
2018-03-01T20:53:59.549Z,22.37
2018-03-01T20:56:29.749Z,8.67
2018-03-01T20:58:58.245Z,22.43
2018-03-01T21:01:30.158Z,15.30
2018-03-01T21:04:05.466Z,16.20
2018-03-01T21:06:39.402Z,10.30
2018-03-01T21:09:12.451Z,18.03
2018-03-01T21:11:45.590Z,7.63
2018-03-01T21:14:17.642Z,14.43
2018-03-01T21:16:48.518Z,18.67
2018-03-01T21:19:18.368Z,16.83
2018-03-01T21:21:46.787Z,20.40
2018-03-01T21:24:15.942Z,11.97
2018-03-01T21:26:44.422Z,12.47
2018-03-01T21:29:12.887Z,17.77
2018-03-01T21:31:41.415Z,6.90
2018-03-01T21:34:11.523Z,19.30
2018-03-01T21:36:41.587Z,12.53
2018-03-01T21:39:11.698Z,16.00
2018-03-01T21:41:40.986Z,16.10
2018-03-01T21:44:11.008Z,17.30
2018-03-01T21:46:39.606Z,19.97
2018-03-01T21:49:08.687Z,19.80
2018-03-01T21:51:38.910Z,18.53
2018-03-01T21:54:07.511Z,22.20
2018-03-01T21:56:37.465Z,12.07
2018-03-01T21:59:06.602Z,21.87
2018-03-01T22:01:34.974Z,20.87
2018-03-01T22:04:03.325Z,14.03
2018-03-01T22:06:31.663Z,17.63
2018-03-01T22:09:00.079Z,17.50
2018-03-01T22:11:28.552Z,17.00
2018-03-01T22:13:56.932Z,19.50
2018-03-01T22:16:27.001Z,19.53
2018-03-01T22:18:56.128Z,14.77
2018-03-01T22:21:24.473Z,21.43
2018-03-01T22:23:52.810Z,20.50
2018-03-01T22:26:21.144Z,20.13
2018-03-01T22:28:52.023Z,19.50
2018-03-01T22:31:21.613Z,12.23
2018-03-01T22:33:50.240Z,18.53
2018-03-01T22:36:18.657Z,20.77
2018-03-01T22:38:47.000Z,15.10
2018-03-01T22:41:18.320Z,16.57
2018-03-01T22:43:46.635Z,18.40
2018-03-01T22:46:16.748Z,20.20
2018-03-01T22:48:45.191Z,15.97
2018-03-01T22:51:13.505Z,13.40
2018-03-01T22:53:42.016Z,21.30
2018-03-01T22:56:10.601Z,18.97
2018-03-01T22:58:38.951Z,16.20
2018-03-01T23:01:08.017Z,10.13
2018-03-01T23:03:36.385Z,15.97
2018-03-01T23:06:05.594Z,20.23
2018-03-01T23:08:33.948Z,21.57
2018-03-01T23:11:03.203Z,8.83
2018-03-01T23:13:31.533Z,19.93
2018-03-01T23:15:59.836Z,14.20
2018-03-01T23:18:28.196Z,22.03
2018-03-01T23:20:56.695Z,16.77
2018-03-01T23:23:25.725Z,15.87
2018-03-01T23:25:54.222Z,19.63
2018-03-01T23:28:24.234Z,9.57
2018-03-01T23:30:53.421Z,19.67
2018-03-01T23:33:21.851Z,18.87
2018-03-01T23:35:50.929Z,12.57
2018-03-01T23:38:21.013Z,10.57
2018-03-01T23:40:49.538Z,20.30
2018-03-01T23:43:20.654Z,16.70
2018-03-01T23:45:49.059Z,10.67
2018-03-01T23:48:20.078Z,19.13
2018-03-01T23:50:50.195Z,12.40
2018-03-01T23:53:18.589Z,19.20
2018-03-01T23:55:46.975Z,18.00
2018-03-01T23:58:16.471Z,10.20
